Petersburg, AK

7:15 PM AKDT on July 29, 2014 (GMT -0800)
Port Alexander (PAAP) Elev 0 ft | 56.25 °N, 134.65 °W | Change Station

Current weather conditions updated 2 hours ago

Overcast
Overcast
55 °F
Feels Like 55 °F
N
7
Wind Variable Wind from South

Tomorrow is forecast to be Much Warmer than today. Showers possible.

Today
High -- | Low -- °F
--% Chance of Precip.
Yesterday
High -- | Low -- °F
Precip. -- in
4:47 AM 9:10 PM
Waxing Crescent, 9% visible
Pressure 30.07 in
Visibility 5.0 miles
Clouds Mostly Cloudy 600 ft
Overcast 1500 ft
Dew Point 54 °F
Humidity 94%
Rainfall 0.00 in
Snow Depth Not available.
UV 1 out of 12
Pollen Not available.
Air Quality Not available.
Flu Activity Not available.
METAR PAAP 300058Z 18006KT 5SM BR BKN006 OVC015 13/12 A3007 RMK NO SPECI

More Conditions Fewer Conditions

Pressure 30.07 in
Visibility 5.0 miles
Clouds Mostly Cloudy 600 ft
Overcast 1500 ft
Dew Point 54 °F
Humidity 94%
Rainfall 0.00 in
Snow Depth Not available.
UV 1 out of 12
Pollen Not available.
Air Quality Not available.
Flu Activity Not available.
METAR PAAP 300058Z 18006KT 5SM BR BKN006 OVC015 13/12 A3007 RMK NO SPECI

More Conditions Fewer Conditions

10-Day Weather Forecast

Almanac

Astronomy

Jul. 29, 2014 Rise Set
Actual Time 4:47 AM AKDT 9:10 PM AKDT
Civil Twilight 3:55 AM AKDT 10:02 PM AKDT
Nautical Twilight 2:31 AM AKDT 11:23 PM AKDT
Astronomical Twilight Sun does not rise Sun does not rise
Moon 8:15 AM AKDT (7/29) 9:36 PM AKDT (7/29)
Length of Visible Light 18h 06m
Length of Day
16h 23m
Tomorrow will be 3m 57s shorter.
Waxing Crescent, 9% of the Moon is Illuminated
Today
Waxing Crescent
Aug 3
First Quarter
Aug 10
Full
Aug 17
Last Quarter
Aug 25
New

Today's Extremes

State Highs State Lows

Community

WunderPhotos

Upload Photos

1,738,980 photos uploaded!

Nearby

Snow Depth

Station Depth Elevation
Long Lake 1 in 820 ft
Upper Tsaina River 0 in 1750 ft
Grandview 2 in 1100 ft
Turnagain Pass 0 in 1880 ft
Cooper Lake 19 in 1200 ft

Earthquake Activity

City Distance Mag. Time & Date
No recent earthquake activity has been reported nearby.
Minimum magnitude displayed is 2.5.

Coastal Water Temperatures

Place Temperature
No Stations Reporting

Nearby Weather Stations

Station Location Temp. Dew Point Humidity Wind Precip. Elev Updated Type
RAWS KAKE AK, Kake, AK 54 °F 53 °F 98% North  at  0 mph 0.00 in / hr 399 ft 5:55 PM AKDT MADIS
Papke's Landing, Petersburg, AK 54.9 °F 54 °F 98% South  at  0.0 mph - / hr 75 ft 7:06 PM AKDT Normal

Show More Stations Show Fewer Stations